createdAt,value
2022-10-06T00:00:49.289Z,100.00
2022-10-06T00:03:16.324Z,100.00
2022-10-06T00:05:43.441Z,100.00
2022-10-06T00:08:10.438Z,100.00
2022-10-06T00:10:36.919Z,100.00
2022-10-06T00:13:03.435Z,100.00
2022-10-06T00:15:32.307Z,100.00
2022-10-06T00:17:59.142Z,100.00
2022-10-06T00:20:26.857Z,100.00
2022-10-06T00:22:53.873Z,100.00
2022-10-06T00:25:22.905Z,100.00
2022-10-06T00:27:51.383Z,100.00
2022-10-06T00:30:26.527Z,100.00
2022-10-06T00:32:59.182Z,100.00
2022-10-06T00:35:28.118Z,100.00
2022-10-06T00:37:54.867Z,100.00
2022-10-06T00:40:22.817Z,100.00
2022-10-06T00:42:53.787Z,99.81
2022-10-06T00:45:39.414Z,99.54
2022-10-06T00:48:13.730Z,99.26
2022-10-06T00:50:41.148Z,100.00
2022-10-06T00:53:07.784Z,98.81
2022-10-06T00:55:34.163Z,98.77
2022-10-06T00:58:01.207Z,99.67
2022-10-06T01:00:28.492Z,100.00
2022-10-06T01:03:04.339Z,98.79
2022-10-06T01:05:35.048Z,99.46
2022-10-06T01:08:02.003Z,98.25
2022-10-06T01:10:28.360Z,99.09
2022-10-06T01:12:56.040Z,98.52
2022-10-06T01:15:24.907Z,97.95
2022-10-06T01:18:13.807Z,98.56
2022-10-06T01:20:49.313Z,98.75
2022-10-06T01:23:16.541Z,99.12
2022-10-06T01:25:44.252Z,98.72
2022-10-06T01:28:12.926Z,98.54
2022-10-06T01:30:45.944Z,99.23
2022-10-06T01:33:12.361Z,99.12
2022-10-06T01:35:38.733Z,98.61
2022-10-06T01:38:05.132Z,98.34
2022-10-06T01:40:31.533Z,98.60
2022-10-06T01:42:58.048Z,98.26
2022-10-06T01:45:24.402Z,99.00
2022-10-06T01:47:50.799Z,98.91
2022-10-06T01:50:17.297Z,98.07
2022-10-06T01:52:43.662Z,98.36
2022-10-06T01:55:10.157Z,97.30
2022-10-06T01:57:41.241Z,96.86
2022-10-06T02:00:08.544Z,97.51
2022-10-06T02:02:34.911Z,97.30
2022-10-06T02:05:01.387Z,97.00
2022-10-06T02:07:31.245Z,96.39
2022-10-06T02:09:57.624Z,96.41
2022-10-06T02:12:24.039Z,97.72
2022-10-06T02:14:50.421Z,97.46
2022-10-06T02:17:16.778Z,96.34
2022-10-06T02:19:43.174Z,97.32
2022-10-06T02:22:09.585Z,96.50
2022-10-06T02:24:35.989Z,97.06
2022-10-06T02:27:02.868Z,96.88
2022-10-06T02:29:29.232Z,96.63
2022-10-06T02:31:55.785Z,96.75
2022-10-06T02:34:22.129Z,97.45
2022-10-06T02:36:48.502Z,98.54
2022-10-06T02:39:14.852Z,97.93
2022-10-06T02:41:41.224Z,98.32
2022-10-06T02:44:07.640Z,98.81
2022-10-06T02:46:34.089Z,99.03
2022-10-06T02:49:00.471Z,98.32
2022-10-06T02:51:26.942Z,99.21
2022-10-06T02:53:54.280Z,99.26
2022-10-06T02:56:23.473Z,100.00
2022-10-06T02:58:51.506Z,100.00
2022-10-06T03:01:24.044Z,100.00
2022-10-06T03:03:50.461Z,99.93
2022-10-06T03:06:24.046Z,99.82
2022-10-06T03:08:57.060Z,100.00
2022-10-06T03:11:29.431Z,100.00
2022-10-06T03:13:56.156Z,100.00
2022-10-06T03:16:28.435Z,100.00
2022-10-06T03:18:55.818Z,100.00
2022-10-06T03:21:25.126Z,100.00
2022-10-06T03:23:53.588Z,100.00
2022-10-06T03:26:23.111Z,100.00
2022-10-06T03:28:49.531Z,100.00
2022-10-06T03:31:16.346Z,100.00
2022-10-06T03:33:42.805Z,100.00
2022-10-06T03:36:14.627Z,100.00
2022-10-06T03:38:41.413Z,100.00
2022-10-06T03:41:15.049Z,100.00
2022-10-06T03:43:43.694Z,100.00
2022-10-06T03:46:11.941Z,100.00
2022-10-06T03:48:39.346Z,100.00
2022-10-06T03:51:10.394Z,100.00
2022-10-06T03:53:37.381Z,100.00
2022-10-06T03:56:04.930Z,100.00
2022-10-06T03:58:33.506Z,100.00
2022-10-06T04:01:07.858Z,100.00
2022-10-06T04:03:34.982Z,100.00
2022-10-06T04:06:04.002Z,99.65
2022-10-06T04:08:32.385Z,99.37
2022-10-06T04:11:22.648Z,99.85
2022-10-06T04:13:54.622Z,100.00
2022-10-06T04:16:24.346Z,99.10
2022-10-06T04:18:52.930Z,99.64
2022-10-06T04:21:19.981Z,100.00
2022-10-06T04:23:46.743Z,99.83
2022-10-06T04:26:15.487Z,100.00
2022-10-06T04:28:46.803Z,100.00
2022-10-06T04:31:22.439Z,100.00
2022-10-06T04:33:52.828Z,100.00
2022-10-06T04:36:25.985Z,100.00
2022-10-06T04:38:56.234Z,100.00
2022-10-06T04:41:23.965Z,100.00
2022-10-06T04:43:50.999Z,100.00
2022-10-06T04:46:41.717Z,100.00
2022-10-06T04:49:05.526Z,100.00
2022-10-06T04:51:31.913Z,100.00
2022-10-06T04:53:58.376Z,100.00
2022-10-06T04:56:27.363Z,100.00
2022-10-06T04:58:55.598Z,100.00
2022-10-06T05:01:31.886Z,100.00
2022-10-06T05:04:00.872Z,100.00
2022-10-06T05:06:28.415Z,100.00
2022-10-06T05:08:57.495Z,100.00
2022-10-06T05:11:25.993Z,100.00
2022-10-06T05:13:54.879Z,100.00
2022-10-06T05:16:22.452Z,100.00
2022-10-06T05:18:48.932Z,100.00
2022-10-06T05:21:24.260Z,100.00
2022-10-06T05:23:50.692Z,100.00
2022-10-06T05:26:21.030Z,100.00
2022-10-06T05:28:48.228Z,100.00
2022-10-06T05:31:20.650Z,100.00
2022-10-06T05:33:47.748Z,100.00
2022-10-06T05:36:16.883Z,100.00
2022-10-06T05:38:44.105Z,100.00
2022-10-06T05:41:16.238Z,100.00
2022-10-06T05:43:43.261Z,100.00
2022-10-06T05:46:24.771Z,100.00
2022-10-06T05:48:56.739Z,100.00
2022-10-06T05:51:30.342Z,100.00
2022-10-06T05:53:57.692Z,100.00
2022-10-06T05:56:26.517Z,100.00
2022-10-06T05:58:55.021Z,100.00
2022-10-06T06:01:25.808Z,100.00
2022-10-06T06:03:54.586Z,100.00
2022-10-06T06:06:29.752Z,100.00
2022-10-06T06:09:06.849Z,100.00
2022-10-06T06:11:35.235Z,100.00
2022-10-06T06:14:06.832Z,100.00
2022-10-06T06:16:33.719Z,100.00
2022-10-06T06:19:01.231Z,100.00
2022-10-06T06:21:29.096Z,100.00
2022-10-06T06:23:56.235Z,100.00
2022-10-06T06:26:33.645Z,100.00
2022-10-06T06:29:04.247Z,100.00
2022-10-06T06:31:38.770Z,100.00
2022-10-06T06:34:11.394Z,100.00
2022-10-06T06:36:44.901Z,100.00
2022-10-06T06:39:13.568Z,100.00
2022-10-06T06:41:42.499Z,100.00
2022-10-06T06:44:11.416Z,100.00
2022-10-06T06:46:38.964Z,100.00
2022-10-06T06:49:06.346Z,100.00
2022-10-06T06:51:40.176Z,100.00
2022-10-06T06:54:07.682Z,100.00
2022-10-06T06:56:35.335Z,100.00
2022-10-06T06:59:03.828Z,100.00
2022-10-06T07:01:30.617Z,100.00
2022-10-06T07:03:59.319Z,100.00
2022-10-06T07:06:29.101Z,100.00
2022-10-06T07:08:57.668Z,100.00
2022-10-06T07:11:32.691Z,100.00
2022-10-06T07:14:01.772Z,100.00
2022-10-06T07:16:48.483Z,100.00
2022-10-06T07:19:35.622Z,100.00
2022-10-06T07:22:24.895Z,100.00
2022-10-06T07:25:07.048Z,100.00
2022-10-06T07:27:45.650Z,100.00
2022-10-06T07:30:19.044Z,100.00
2022-10-06T07:32:46.746Z,100.00
2022-10-06T07:35:13.550Z,100.00
2022-10-06T07:37:40.634Z,100.00
2022-10-06T07:40:08.667Z,100.00
2022-10-06T07:42:48.409Z,100.00
2022-10-06T07:45:36.130Z,100.00
2022-10-06T07:48:03.513Z,100.00
2022-10-06T07:50:30.256Z,99.40
2022-10-06T07:52:56.802Z,100.00
2022-10-06T07:55:23.480Z,99.38
2022-10-06T07:57:51.265Z,98.46
2022-10-06T08:00:20.745Z,97.77
2022-10-06T08:02:47.356Z,98.02
2022-10-06T08:05:14.164Z,98.19
2022-10-06T08:07:41.356Z,97.50
2022-10-06T08:10:08.053Z,96.55
2022-10-06T08:12:34.608Z,96.19
2022-10-06T08:15:06.110Z,95.99
2022-10-06T08:17:35.444Z,94.93
2022-10-06T08:20:02.760Z,92.85
2022-10-06T08:22:30.128Z,91.06
2022-10-06T08:25:05.682Z,87.80
2022-10-06T08:27:33.495Z,86.18
2022-10-06T08:29:59.898Z,84.59
2022-10-06T08:32:26.469Z,81.28
2022-10-06T08:34:53.105Z,79.78
2022-10-06T08:37:27.296Z,75.44
2022-10-06T08:39:54.687Z,78.10
2022-10-06T08:42:48.439Z,74.75
2022-10-06T08:45:24.052Z,74.33
2022-10-06T08:48:00.390Z,73.03
2022-10-06T08:50:29.323Z,71.53
2022-10-06T08:53:14.078Z,70.88
2022-10-06T08:55:51.295Z,69.06
2022-10-06T08:58:17.670Z,68.99
2022-10-06T09:00:44.221Z,66.90
2022-10-06T09:03:22.174Z,66.09
2022-10-06T09:05:48.710Z,66.11
2022-10-06T09:08:53.921Z,64.80
2022-10-06T09:11:35.043Z,62.26
2022-10-06T09:14:10.585Z,63.10
2022-10-06T09:16:41.602Z,60.50
2022-10-06T09:19:19.935Z,61.00
2022-10-06T09:21:52.222Z,59.88
2022-10-06T09:24:29.866Z,61.20
2022-10-06T09:26:58.805Z,62.05
2022-10-06T09:29:27.858Z,61.65
2022-10-06T09:31:54.396Z,61.38
2022-10-06T09:34:40.576Z,56.75
2022-10-06T09:37:10.947Z,56.72
2022-10-06T09:39:39.880Z,56.78
2022-10-06T09:42:14.608Z,60.06
2022-10-06T09:44:50.946Z,56.72
2022-10-06T09:47:32.466Z,59.05
2022-10-06T09:50:15.831Z,57.26
2022-10-06T09:53:01.759Z,55.82
2022-10-06T09:55:34.170Z,56.47
2022-10-06T09:58:01.497Z,58.82
2022-10-06T10:00:46.988Z,58.49
2022-10-06T10:03:13.502Z,59.26
2022-10-06T10:05:47.921Z,54.51
2022-10-06T10:08:14.235Z,57.83
2022-10-06T10:10:41.226Z,61.28
2022-10-06T10:13:24.622Z,60.84
2022-10-06T10:15:57.520Z,54.68
2022-10-06T10:18:30.249Z,56.57
2022-10-06T10:21:05.120Z,54.60
2022-10-06T10:23:38.957Z,53.38
2022-10-06T10:26:23.492Z,50.11
2022-10-06T10:28:57.421Z,49.06
2022-10-06T10:31:49.800Z,50.57
2022-10-06T10:34:36.604Z,57.88
2022-10-06T10:37:33.514Z,52.24
2022-10-06T10:40:28.904Z,54.17
2022-10-06T10:43:14.071Z,53.31
2022-10-06T10:45:51.272Z,55.96
2022-10-06T10:48:24.190Z,55.40
2022-10-06T10:50:58.005Z,53.37
2022-10-06T10:53:42.517Z,56.59
2022-10-06T10:56:11.991Z,55.39
2022-10-06T10:58:43.095Z,54.33
2022-10-06T11:01:16.587Z,50.92
2022-10-06T11:03:43.393Z,51.04
2022-10-06T11:06:22.120Z,52.75
2022-10-06T11:09:41.579Z,47.54
2022-10-06T11:12:23.625Z,46.45
2022-10-06T11:15:05.548Z,45.97
2022-10-06T11:17:44.188Z,46.59
2022-10-06T11:20:57.740Z,48.54
2022-10-06T11:24:38.349Z,48.09
2022-10-06T11:27:38.587Z,49.85
2022-10-06T11:30:26.424Z,50.34
2022-10-06T11:33:02.019Z,56.57
2022-10-06T11:35:41.449Z,49.92
2022-10-06T11:38:23.278Z,48.79
2022-10-06T11:40:55.449Z,47.59
2022-10-06T11:43:43.199Z,47.24
2022-10-06T11:46:42.646Z,45.87
2022-10-06T11:49:28.878Z,46.19
2022-10-06T11:52:15.157Z,50.45
2022-10-06T11:54:47.484Z,47.31
2022-10-06T11:57:26.275Z,47.55
2022-10-06T12:00:15.978Z,46.51
2022-10-06T12:02:44.703Z,46.61
2022-10-06T12:05:44.689Z,51.94
2022-10-06T12:08:00.869Z,48.53
2022-10-06T12:10:30.238Z,49.36
2022-10-06T12:19:38.170Z,48.25
2022-10-06T12:22:22.753Z,47.97
2022-10-06T12:24:57.905Z,45.16
2022-10-06T12:27:27.465Z,48.80
2022-10-06T12:30:03.844Z,46.10
2022-10-06T12:32:38.838Z,48.61
2022-10-06T12:35:08.235Z,53.96
2022-10-06T12:37:40.660Z,52.60
2022-10-06T12:40:44.260Z,55.36
2022-10-06T12:43:20.842Z,52.59
2022-10-06T12:45:56.271Z,53.87
2022-10-06T12:48:41.663Z,49.56
2022-10-06T12:51:35.054Z,48.44
2022-10-06T12:54:17.240Z,50.10
2022-10-06T12:56:44.088Z,52.57
2022-10-06T12:59:43.529Z,53.67
2022-10-06T13:02:25.485Z,51.67
2022-10-06T13:05:00.283Z,50.14
2022-10-06T13:07:33.034Z,55.27
2022-10-06T13:10:14.685Z,50.84
2022-10-06T13:12:46.583Z,54.40
2022-10-06T13:18:00.197Z,53.90
2022-10-06T13:20:42.701Z,55.06
2022-10-06T13:23:11.828Z,57.96
2022-10-06T13:25:46.212Z,55.80
2022-10-06T13:28:21.349Z,52.62
2022-10-06T13:31:15.012Z,52.01
2022-10-06T13:33:43.279Z,56.46
2022-10-06T13:36:11.932Z,54.41
2022-10-06T13:38:39.673Z,55.41
2022-10-06T13:41:24.591Z,56.75
2022-10-06T13:44:01.467Z,57.33
2022-10-06T13:46:31.892Z,57.85
2022-10-06T13:49:03.500Z,59.66
2022-10-06T13:51:32.157Z,53.64
2022-10-06T13:54:01.231Z,52.62
2022-10-06T13:56:34.706Z,53.69
2022-10-06T13:59:19.826Z,56.66
2022-10-06T14:01:46.336Z,58.90
2022-10-06T14:04:14.628Z,58.97
2022-10-06T14:06:52.372Z,58.38
2022-10-06T14:09:27.512Z,60.23
2022-10-06T14:12:27.671Z,60.06
2022-10-06T14:14:54.214Z,58.76
2022-10-06T14:17:25.614Z,59.34
2022-10-06T14:19:52.310Z,58.94
2022-10-06T14:22:38.238Z,59.84
2022-10-06T14:25:11.715Z,58.82
2022-10-06T14:27:38.200Z,58.39
2022-10-06T14:30:05.089Z,58.37
2022-10-06T14:32:31.445Z,58.46
2022-10-06T14:34:57.834Z,58.08
2022-10-06T14:37:24.235Z,59.50
2022-10-06T14:39:51.719Z,59.94
2022-10-06T14:42:18.182Z,58.97
2022-10-06T14:44:44.815Z,57.53
2022-10-06T14:47:12.922Z,59.86
2022-10-06T14:49:39.322Z,59.86
2022-10-06T14:52:06.986Z,57.89
2022-10-06T14:54:34.534Z,59.77
2022-10-06T14:57:00.947Z,59.64
2022-10-06T14:59:27.445Z,60.60
2022-10-06T15:01:53.810Z,61.37
2022-10-06T15:04:24.327Z,60.70
2022-10-06T15:07:09.505Z,61.63
2022-10-06T15:09:36.046Z,62.88
2022-10-06T15:12:03.216Z,61.90
2022-10-06T15:14:30.009Z,60.65
2022-10-06T15:16:59.896Z,60.73
2022-10-06T15:19:27.091Z,61.01
2022-10-06T15:21:53.765Z,61.97
2022-10-06T15:24:20.157Z,61.48
2022-10-06T15:27:05.554Z,63.11
2022-10-06T15:29:34.735Z,63.76
2022-10-06T15:32:02.213Z,62.72
2022-10-06T15:34:30.488Z,61.51
2022-10-06T15:36:57.792Z,62.73
2022-10-06T15:39:29.373Z,61.56
2022-10-06T15:41:56.462Z,62.44
2022-10-06T15:44:23.314Z,62.62
2022-10-06T15:46:54.588Z,62.92
2022-10-06T15:49:23.314Z,62.86
2022-10-06T15:51:57.426Z,62.05
2022-10-06T15:54:26.808Z,62.58
2022-10-06T15:56:58.930Z,62.42
2022-10-06T15:59:27.275Z,62.50
2022-10-06T16:02:00.553Z,62.48
2022-10-06T16:04:47.123Z,63.58
2022-10-06T16:07:19.085Z,67.69
2022-10-06T16:09:50.274Z,64.38
2022-10-06T16:12:19.836Z,64.46
2022-10-06T16:14:46.624Z,65.16
2022-10-06T16:17:14.188Z,65.15
2022-10-06T16:19:41.032Z,65.42
2022-10-06T16:22:11.002Z,66.60
2022-10-06T16:24:37.414Z,67.56
2022-10-06T16:27:03.981Z,67.72
2022-10-06T16:29:30.620Z,68.52
2022-10-06T16:31:57.843Z,69.64
2022-10-06T16:34:25.539Z,69.18
2022-10-06T16:36:52.411Z,69.85
2022-10-06T16:39:21.315Z,70.04
2022-10-06T16:41:48.326Z,71.39
2022-10-06T16:44:14.833Z,70.43
2022-10-06T16:46:41.390Z,69.02
2022-10-06T16:49:09.230Z,69.51
2022-10-06T16:51:38.984Z,70.47
2022-10-06T16:54:13.160Z,70.25
2022-10-06T16:56:42.212Z,71.36
2022-10-06T16:59:14.695Z,70.02
2022-10-06T17:01:41.470Z,72.57
2022-10-06T17:04:15.749Z,72.42
2022-10-06T17:06:44.720Z,72.45
2022-10-06T17:09:19.482Z,73.19
2022-10-06T17:11:51.408Z,71.84
2022-10-06T17:14:18.741Z,71.90
2022-10-06T17:16:46.637Z,73.11
2022-10-06T17:19:15.520Z,72.84
2022-10-06T17:21:47.118Z,73.00
2022-10-06T17:24:14.883Z,72.93
2022-10-06T17:26:42.962Z,73.53
2022-10-06T17:29:17.426Z,73.98
2022-10-06T17:31:44.936Z,73.79
2022-10-06T17:34:15.949Z,74.40
2022-10-06T17:36:48.252Z,73.19
2022-10-06T17:39:16.477Z,74.18
2022-10-06T17:41:44.105Z,74.00
2022-10-06T17:44:22.461Z,74.95
2022-10-06T17:46:51.449Z,73.37
2022-10-06T17:49:22.149Z,72.85
2022-10-06T17:51:49.747Z,74.33
2022-10-06T17:54:21.925Z,74.11
2022-10-06T17:56:50.834Z,75.37
2022-10-06T17:59:22.432Z,75.79
2022-10-06T18:01:51.167Z,75.71
2022-10-06T18:04:18.858Z,76.06
2022-10-06T18:06:46.874Z,76.49
2022-10-06T18:09:14.501Z,77.04
2022-10-06T18:11:48.121Z,77.79
2022-10-06T18:14:19.568Z,78.20
2022-10-06T18:16:55.909Z,77.85
2022-10-06T18:19:29.989Z,77.51
2022-10-06T18:22:12.910Z,79.46
2022-10-06T18:24:40.007Z,80.48
2022-10-06T18:27:07.850Z,81.34
2022-10-06T18:29:37.077Z,82.12
2022-10-06T18:32:51.081Z,82.55
2022-10-06T18:37:38.553Z,82.27
2022-10-06T18:40:08.574Z,82.73
2022-10-06T18:42:35.849Z,83.28
2022-10-06T18:45:21.061Z,83.58
2022-10-06T18:48:07.427Z,83.84
2022-10-06T18:50:34.981Z,84.21
2022-10-06T18:53:01.726Z,84.92
2022-10-06T18:55:29.761Z,84.24
2022-10-06T18:57:56.165Z,83.50
2022-10-06T19:00:22.519Z,83.85
2022-10-06T19:02:51.739Z,84.21
2022-10-06T19:05:18.146Z,84.74
2022-10-06T19:07:45.124Z,84.08
2022-10-06T19:10:11.820Z,84.25
2022-10-06T19:12:38.176Z,83.96
2022-10-06T19:15:04.930Z,84.61
2022-10-06T19:17:31.280Z,83.67
2022-10-06T19:19:57.654Z,84.88
2022-10-06T19:22:24.970Z,84.30
2022-10-06T19:24:51.553Z,84.23
2022-10-06T19:27:23.953Z,84.45
2022-10-06T19:29:56.355Z,84.09
2022-10-06T19:32:26.152Z,82.98
2022-10-06T19:34:53.112Z,83.49
2022-10-06T19:37:19.551Z,83.80
2022-10-06T19:39:48.087Z,83.00
2022-10-06T19:42:34.895Z,83.71
2022-10-06T19:45:01.914Z,83.45
2022-10-06T19:47:29.086Z,84.03
2022-10-06T19:50:00.530Z,82.98
2022-10-06T19:52:28.677Z,83.84
2022-10-06T19:54:55.035Z,83.61
2022-10-06T19:57:21.379Z,83.37
2022-10-06T19:59:47.733Z,83.40
2022-10-06T20:02:14.138Z,82.93
2022-10-06T20:04:40.612Z,83.77
2022-10-06T20:07:08.626Z,84.15
2022-10-06T20:09:35.654Z,83.81
2022-10-06T20:12:02.058Z,83.53
2022-10-06T20:14:29.103Z,82.68
2022-10-06T20:16:56.484Z,83.35
2022-10-06T20:19:25.450Z,82.93
2022-10-06T20:21:53.041Z,83.39
2022-10-06T20:24:22.850Z,83.16
2022-10-06T20:26:50.551Z,83.62
2022-10-06T20:29:22.896Z,83.99
2022-10-06T20:31:52.548Z,84.39
2022-10-06T20:34:21.483Z,84.79
2022-10-06T20:36:51.923Z,84.97
2022-10-06T20:39:41.354Z,84.29
2022-10-06T20:42:12.270Z,84.36
2022-10-06T20:44:42.258Z,84.75
2022-10-06T20:47:10.252Z,84.44
2022-10-06T20:49:36.881Z,84.13
2022-10-06T20:52:04.582Z,83.76
2022-10-06T20:54:34.743Z,84.14
2022-10-06T20:57:04.059Z,84.26
2022-10-06T20:59:31.608Z,83.57
2022-10-06T21:02:00.103Z,84.71
2022-10-06T21:04:29.942Z,85.21
2022-10-06T21:06:57.180Z,85.27
2022-10-06T21:09:24.511Z,85.04
2022-10-06T21:11:51.403Z,85.68
2022-10-06T21:14:18.348Z,85.83
2022-10-06T21:16:46.325Z,85.40
2022-10-06T21:19:15.528Z,85.38
2022-10-06T21:21:43.733Z,86.01
2022-10-06T21:24:10.134Z,85.45
2022-10-06T21:26:38.635Z,85.60
2022-10-06T21:29:05.489Z,85.77
2022-10-06T21:31:33.035Z,85.33
2022-10-06T21:34:01.243Z,85.55
2022-10-06T21:36:31.223Z,86.00
2022-10-06T21:38:58.745Z,85.37
2022-10-06T21:41:30.508Z,85.60
2022-10-06T21:44:01.090Z,85.81
2022-10-06T21:46:30.370Z,86.09
2022-10-06T21:48:58.629Z,85.45
2022-10-06T21:51:26.677Z,85.55
2022-10-06T21:53:56.774Z,85.89
2022-10-06T21:56:24.438Z,85.69
2022-10-06T21:58:52.930Z,86.37
2022-10-06T22:01:21.366Z,86.76
2022-10-06T22:03:48.728Z,87.58
2022-10-06T22:06:19.377Z,87.39
2022-10-06T22:08:47.064Z,87.28
2022-10-06T22:11:20.070Z,87.39
2022-10-06T22:13:49.790Z,88.80
2022-10-06T22:16:19.200Z,88.04
2022-10-06T22:18:46.175Z,88.12
2022-10-06T22:21:15.351Z,87.87
2022-10-06T22:23:43.630Z,87.69
2022-10-06T22:26:11.773Z,88.38
2022-10-06T22:28:38.816Z,89.24
2022-10-06T22:31:10.217Z,88.89
2022-10-06T22:33:41.048Z,89.22
2022-10-06T22:36:10.045Z,88.91
2022-10-06T22:38:36.456Z,90.24
2022-10-06T22:41:08.573Z,90.25
2022-10-06T22:43:35.462Z,91.62
2022-10-06T22:46:02.697Z,91.36
2022-10-06T22:48:29.795Z,91.92
2022-10-06T22:50:56.239Z,92.14
2022-10-06T22:53:25.188Z,92.46
2022-10-06T22:55:52.610Z,92.13
2022-10-06T22:58:19.186Z,93.26
2022-10-06T23:00:45.702Z,92.49
2022-10-06T23:03:12.623Z,92.04
2022-10-06T23:05:39.704Z,92.28
2022-10-06T23:08:07.614Z,92.37
2022-10-06T23:10:35.261Z,92.19
2022-10-06T23:13:02.180Z,93.00
2022-10-06T23:15:28.965Z,94.29
2022-10-06T23:17:55.488Z,93.70
2022-10-06T23:20:22.106Z,93.49
2022-10-06T23:22:48.543Z,93.69
2022-10-06T23:25:15.034Z,94.33
2022-10-06T23:27:41.673Z,93.70
2022-10-06T23:30:09.099Z,95.79
2022-10-06T23:32:37.461Z,95.63
2022-10-06T23:35:04.515Z,95.24
2022-10-06T23:37:31.073Z,94.12
2022-10-06T23:39:57.656Z,94.39
2022-10-06T23:42:24.145Z,94.70
2022-10-06T23:44:50.543Z,95.36
2022-10-06T23:47:16.930Z,95.80
2022-10-06T23:49:43.647Z,96.02
2022-10-06T23:52:10.296Z,95.66
2022-10-06T23:54:37.034Z,96.05
2022-10-06T23:57:03.866Z,96.40
2022-10-06T23:59:31.452Z,97.00
